sensor_id;sensor_type;location;lat;lon;timestamp;P1;durP1;ratioP1;P2;durP2;ratioP2
37593;SDS011;23441;50.856;6.076;2024-03-22T00:00:25;28.58;;;14.55;;
37593;SDS011;23441;50.856;6.076;2024-03-22T00:03:11;32.65;;;16.70;;
37593;SDS011;23441;50.856;6.076;2024-03-22T00:05:57;29.65;;;14.75;;
37593;SDS011;23441;50.856;6.076;2024-03-22T00:08:43;31.80;;;14.90;;
37593;SDS011;23441;50.856;6.076;2024-03-22T00:11:29;29.42;;;14.93;;
37593;SDS011;23441;50.856;6.076;2024-03-22T00:14:14;30.58;;;14.88;;
37593;SDS011;23441;50.856;6.076;2024-03-22T00:17:00;29.83;;;15.48;;
37593;SDS011;23441;50.856;6.076;2024-03-22T00:19:46;30.50;;;15.57;;
37593;SDS011;23441;50.856;6.076;2024-03-22T00:22:32;28.35;;;14.85;;
37593;SDS011;23441;50.856;6.076;2024-03-22T00:25:18;29.17;;;14.57;;
37593;SDS011;23441;50.856;6.076;2024-03-22T00:28:04;32.03;;;14.35;;
37593;SDS011;23441;50.856;6.076;2024-03-22T00:30:50;30.55;;;15.20;;
37593;SDS011;23441;50.856;6.076;2024-03-22T00:33:36;27.10;;;14.63;;
37593;SDS011;23441;50.856;6.076;2024-03-22T00:36:22;29.27;;;14.93;;
37593;SDS011;23441;50.856;6.076;2024-03-22T00:39:08;27.08;;;14.45;;
37593;SDS011;23441;50.856;6.076;2024-03-22T00:41:54;25.95;;;14.32;;
37593;SDS011;23441;50.856;6.076;2024-03-22T00:44:40;25.48;;;13.88;;
37593;SDS011;23441;50.856;6.076;2024-03-22T00:47:26;25.00;;;14.18;;
37593;SDS011;23441;50.856;6.076;2024-03-22T00:50:12;25.48;;;14.40;;
37593;SDS011;23441;50.856;6.076;2024-03-22T00:52:58;29.63;;;15.52;;
37593;SDS011;23441;50.856;6.076;2024-03-22T00:55:44;27.27;;;14.25;;
37593;SDS011;23441;50.856;6.076;2024-03-22T00:58:31;26.80;;;15.00;;
37593;SDS011;23441;50.856;6.076;2024-03-22T01:01:17;31.98;;;15.50;;
37593;SDS011;23441;50.856;6.076;2024-03-22T01:04:03;31.00;;;15.40;;
37593;SDS011;23441;50.856;6.076;2024-03-22T01:06:49;32.25;;;14.90;;
37593;SDS011;23441;50.856;6.076;2024-03-22T01:09:35;27.52;;;15.13;;
37593;SDS011;23441;50.856;6.076;2024-03-22T01:12:21;30.15;;;14.82;;
37593;SDS011;23441;50.856;6.076;2024-03-22T01:15:07;28.10;;;15.10;;
37593;SDS011;23441;50.856;6.076;2024-03-22T01:17:53;30.67;;;15.80;;
37593;SDS011;23441;50.856;6.076;2024-03-22T01:20:39;29.90;;;15.30;;
37593;SDS011;23441;50.856;6.076;2024-03-22T01:23:25;30.95;;;16.17;;
37593;SDS011;23441;50.856;6.076;2024-03-22T01:26:11;34.38;;;15.82;;
37593;SDS011;23441;50.856;6.076;2024-03-22T01:28:57;28.20;;;15.30;;
37593;SDS011;23441;50.856;6.076;2024-03-22T01:31:42;29.23;;;15.77;;
37593;SDS011;23441;50.856;6.076;2024-03-22T01:34:28;27.65;;;15.27;;
37593;SDS011;23441;50.856;6.076;2024-03-22T01:37:14;26.92;;;15.60;;
37593;SDS011;23441;50.856;6.076;2024-03-22T01:40:00;29.33;;;16.95;;
37593;SDS011;23441;50.856;6.076;2024-03-22T01:42:46;31.17;;;15.45;;
37593;SDS011;23441;50.856;6.076;2024-03-22T01:45:32;28.60;;;15.65;;
37593;SDS011;23441;50.856;6.076;2024-03-22T01:48:19;28.90;;;16.00;;
37593;SDS011;23441;50.856;6.076;2024-03-22T01:51:05;26.25;;;15.10;;
37593;SDS011;23441;50.856;6.076;2024-03-22T01:53:51;27.63;;;15.90;;
37593;SDS011;23441;50.856;6.076;2024-03-22T01:56:39;28.17;;;16.27;;
37593;SDS011;23441;50.856;6.076;2024-03-22T01:59:25;27.92;;;15.35;;
37593;SDS011;23441;50.856;6.076;2024-03-22T02:02:11;29.67;;;15.48;;
37593;SDS011;23441;50.856;6.076;2024-03-22T02:04:58;30.42;;;15.95;;
37593;SDS011;23441;50.856;6.076;2024-03-22T02:07:44;28.77;;;16.48;;
37593;SDS011;23441;50.856;6.076;2024-03-22T02:10:33;31.70;;;17.80;;
37593;SDS011;23441;50.856;6.076;2024-03-22T02:13:19;32.83;;;16.50;;
37593;SDS011;23441;50.856;6.076;2024-03-22T02:16:05;27.60;;;17.30;;
37593;SDS011;23441;50.856;6.076;2024-03-22T02:18:51;28.67;;;15.93;;
37593;SDS011;23441;50.856;6.076;2024-03-22T02:21:37;30.45;;;17.25;;
37593;SDS011;23441;50.856;6.076;2024-03-22T02:24:23;28.15;;;16.60;;
37593;SDS011;23441;50.856;6.076;2024-03-22T02:27:09;29.35;;;17.05;;
37593;SDS011;23441;50.856;6.076;2024-03-22T02:29:55;27.25;;;16.67;;
37593;SDS011;23441;50.856;6.076;2024-03-22T02:32:41;30.80;;;16.45;;
37593;SDS011;23441;50.856;6.076;2024-03-22T02:35:27;27.13;;;16.40;;
37593;SDS011;23441;50.856;6.076;2024-03-22T02:38:13;30.70;;;17.80;;
37593;SDS011;23441;50.856;6.076;2024-03-22T02:40:59;32.78;;;17.17;;
37593;SDS011;23441;50.856;6.076;2024-03-22T02:43:45;37.63;;;17.15;;
37593;SDS011;23441;50.856;6.076;2024-03-22T02:46:31;32.65;;;17.30;;
37593;SDS011;23441;50.856;6.076;2024-03-22T02:49:17;27.67;;;16.90;;
37593;SDS011;23441;50.856;6.076;2024-03-22T02:52:03;28.40;;;16.65;;
37593;SDS011;23441;50.856;6.076;2024-03-22T02:54:49;30.75;;;17.23;;
37593;SDS011;23441;50.856;6.076;2024-03-22T02:57:35;31.25;;;15.90;;
37593;SDS011;23441;50.856;6.076;2024-03-22T03:00:21;28.15;;;17.02;;
37593;SDS011;23441;50.856;6.076;2024-03-22T03:03:07;25.30;;;15.25;;
37593;SDS011;23441;50.856;6.076;2024-03-22T03:05:53;30.85;;;16.52;;
37593;SDS011;23441;50.856;6.076;2024-03-22T03:08:39;31.13;;;15.55;;
37593;SDS011;23441;50.856;6.076;2024-03-22T03:11:25;28.05;;;16.13;;
37593;SDS011;23441;50.856;6.076;2024-03-22T03:14:11;28.42;;;17.17;;
37593;SDS011;23441;50.856;6.076;2024-03-22T03:16:57;23.45;;;15.75;;
37593;SDS011;23441;50.856;6.076;2024-03-22T03:19:43;30.05;;;15.18;;
37593;SDS011;23441;50.856;6.076;2024-03-22T03:22:29;27.20;;;14.65;;
37593;SDS011;23441;50.856;6.076;2024-03-22T03:25:15;29.67;;;16.08;;
37593;SDS011;23441;50.856;6.076;2024-03-22T03:28:01;25.52;;;14.30;;
37593;SDS011;23441;50.856;6.076;2024-03-22T03:30:47;26.25;;;14.43;;
37593;SDS011;23441;50.856;6.076;2024-03-22T03:33:33;23.10;;;13.63;;
37593;SDS011;23441;50.856;6.076;2024-03-22T03:36:19;23.92;;;13.52;;
37593;SDS011;23441;50.856;6.076;2024-03-22T03:39:05;20.20;;;13.00;;
37593;SDS011;23441;50.856;6.076;2024-03-22T03:41:51;23.13;;;13.70;;
37593;SDS011;23441;50.856;6.076;2024-03-22T03:44:37;20.63;;;13.05;;
37593;SDS011;23441;50.856;6.076;2024-03-22T03:47:23;19.30;;;12.65;;
37593;SDS011;23441;50.856;6.076;2024-03-22T03:50:09;26.45;;;13.05;;
37593;SDS011;23441;50.856;6.076;2024-03-22T03:52:55;21.50;;;13.20;;
37593;SDS011;23441;50.856;6.076;2024-03-22T03:55:40;24.15;;;13.63;;
37593;SDS011;23441;50.856;6.076;2024-03-22T03:58:26;23.90;;;13.38;;
37593;SDS011;23441;50.856;6.076;2024-03-22T04:01:12;25.00;;;13.25;;
37593;SDS011;23441;50.856;6.076;2024-03-22T04:03:58;20.48;;;12.55;;
37593;SDS011;23441;50.856;6.076;2024-03-22T04:06:44;21.73;;;13.30;;
37593;SDS011;23441;50.856;6.076;2024-03-22T04:09:30;26.17;;;15.20;;
37593;SDS011;23441;50.856;6.076;2024-03-22T04:12:16;23.67;;;14.40;;
37593;SDS011;23441;50.856;6.076;2024-03-22T04:15:02;25.63;;;14.48;;
37593;SDS011;23441;50.856;6.076;2024-03-22T04:17:48;24.23;;;14.00;;
37593;SDS011;23441;50.856;6.076;2024-03-22T04:20:34;25.80;;;15.27;;
37593;SDS011;23441;50.856;6.076;2024-03-22T04:23:21;26.45;;;14.85;;
37593;SDS011;23441;50.856;6.076;2024-03-22T04:26:07;24.67;;;15.85;;
37593;SDS011;23441;50.856;6.076;2024-03-22T04:28:53;25.55;;;15.90;;
37593;SDS011;23441;50.856;6.076;2024-03-22T04:31:39;29.95;;;17.67;;
37593;SDS011;23441;50.856;6.076;2024-03-22T04:34:25;26.45;;;16.05;;
37593;SDS011;23441;50.856;6.076;2024-03-22T04:37:11;29.30;;;16.73;;
37593;SDS011;23441;50.856;6.076;2024-03-22T04:39:57;28.25;;;16.38;;
37593;SDS011;23441;50.856;6.076;2024-03-22T04:42:43;34.65;;;18.00;;
37593;SDS011;23441;50.856;6.076;2024-03-22T04:45:28;26.33;;;17.23;;
37593;SDS011;23441;50.856;6.076;2024-03-22T04:48:16;32.80;;;18.02;;
37593;SDS011;23441;50.856;6.076;2024-03-22T04:51:03;26.85;;;16.77;;
37593;SDS011;23441;50.856;6.076;2024-03-22T04:53:49;32.60;;;19.00;;
37593;SDS011;23441;50.856;6.076;2024-03-22T04:56:35;28.00;;;17.92;;
37593;SDS011;23441;50.856;6.076;2024-03-22T04:59:21;33.00;;;18.48;;
37593;SDS011;23441;50.856;6.076;2024-03-22T05:02:07;33.10;;;18.10;;
37593;SDS011;23441;50.856;6.076;2024-03-22T05:04:53;34.22;;;17.98;;
37593;SDS011;23441;50.856;6.076;2024-03-22T05:07:39;31.52;;;18.27;;
37593;SDS011;23441;50.856;6.076;2024-03-22T05:10:25;29.45;;;17.48;;
37593;SDS011;23441;50.856;6.076;2024-03-22T05:13:10;33.80;;;18.58;;
37593;SDS011;23441;50.856;6.076;2024-03-22T05:15:56;33.05;;;18.35;;
37593;SDS011;23441;50.856;6.076;2024-03-22T05:18:42;33.75;;;18.60;;
37593;SDS011;23441;50.856;6.076;2024-03-22T05:21:29;35.00;;;19.95;;
37593;SDS011;23441;50.856;6.076;2024-03-22T05:24:15;36.85;;;18.95;;
37593;SDS011;23441;50.856;6.076;2024-03-22T05:27:01;31.35;;;18.45;;
37593;SDS011;23441;50.856;6.076;2024-03-22T05:29:47;33.28;;;18.83;;
37593;SDS011;23441;50.856;6.076;2024-03-22T05:32:32;31.48;;;18.33;;
37593;SDS011;23441;50.856;6.076;2024-03-22T05:35:18;33.13;;;17.08;;
37593;SDS011;23441;50.856;6.076;2024-03-22T05:38:04;31.33;;;17.85;;
37593;SDS011;23441;50.856;6.076;2024-03-22T05:40:50;33.38;;;18.13;;
37593;SDS011;23441;50.856;6.076;2024-03-22T05:43:36;32.10;;;18.20;;
37593;SDS011;23441;50.856;6.076;2024-03-22T05:46:22;29.50;;;17.25;;
37593;SDS011;23441;50.856;6.076;2024-03-22T05:49:08;30.50;;;17.55;;
37593;SDS011;23441;50.856;6.076;2024-03-22T05:51:54;33.10;;;18.40;;
37593;SDS011;23441;50.856;6.076;2024-03-22T05:54:40;33.75;;;17.88;;
37593;SDS011;23441;50.856;6.076;2024-03-22T05:57:26;31.83;;;18.42;;
37593;SDS011;23441;50.856;6.076;2024-03-22T06:00:12;35.53;;;18.02;;
37593;SDS011;23441;50.856;6.076;2024-03-22T06:02:58;31.80;;;18.08;;
37593;SDS011;23441;50.856;6.076;2024-03-22T06:05:44;34.42;;;18.30;;
37593;SDS011;23441;50.856;6.076;2024-03-22T06:08:30;37.00;;;19.90;;
37593;SDS011;23441;50.856;6.076;2024-03-22T06:11:24;35.53;;;19.80;;
37593;SDS011;23441;50.856;6.076;2024-03-22T06:14:10;35.00;;;19.50;;
37593;SDS011;23441;50.856;6.076;2024-03-22T06:16:56;32.03;;;19.88;;
37593;SDS011;23441;50.856;6.076;2024-03-22T06:19:43;36.90;;;19.85;;
37593;SDS011;23441;50.856;6.076;2024-03-22T06:22:28;38.97;;;20.80;;
37593;SDS011;23441;50.856;6.076;2024-03-22T06:25:14;33.45;;;19.08;;
37593;SDS011;23441;50.856;6.076;2024-03-22T06:28:00;33.00;;;19.10;;
37593;SDS011;23441;50.856;6.076;2024-03-22T06:30:47;30.00;;;17.83;;
37593;SDS011;23441;50.856;6.076;2024-03-22T06:33:33;28.80;;;15.73;;
37593;SDS011;23441;50.856;6.076;2024-03-22T06:36:19;22.75;;;14.13;;
37593;SDS011;23441;50.856;6.076;2024-03-22T06:39:05;25.00;;;13.85;;
37593;SDS011;23441;50.856;6.076;2024-03-22T06:41:52;23.52;;;12.38;;
37593;SDS011;23441;50.856;6.076;2024-03-22T06:44:38;20.70;;;11.20;;
37593;SDS011;23441;50.856;6.076;2024-03-22T06:47:24;19.35;;;11.77;;
37593;SDS011;23441;50.856;6.076;2024-03-22T06:50:10;21.15;;;10.85;;
37593;SDS011;23441;50.856;6.076;2024-03-22T06:52:56;17.10;;;10.70;;
37593;SDS011;23441;50.856;6.076;2024-03-22T06:55:42;19.15;;;10.43;;
37593;SDS011;23441;50.856;6.076;2024-03-22T06:58:28;19.58;;;10.52;;
37593;SDS011;23441;50.856;6.076;2024-03-22T07:01:14;16.85;;;10.38;;
37593;SDS011;23441;50.856;6.076;2024-03-22T07:04:01;19.08;;;11.02;;
37593;SDS011;23441;50.856;6.076;2024-03-22T07:06:47;18.92;;;11.85;;
37593;SDS011;23441;50.856;6.076;2024-03-22T07:09:33;20.30;;;11.95;;
37593;SDS011;23441;50.856;6.076;2024-03-22T07:12:19;25.65;;;12.27;;
37593;SDS011;23441;50.856;6.076;2024-03-22T07:15:05;22.83;;;13.80;;
37593;SDS011;23441;50.856;6.076;2024-03-22T07:17:52;22.70;;;13.85;;
37593;SDS011;23441;50.856;6.076;2024-03-22T07:20:38;22.55;;;12.38;;
37593;SDS011;23441;50.856;6.076;2024-03-22T07:23:23;23.17;;;12.85;;
37593;SDS011;23441;50.856;6.076;2024-03-22T07:26:09;21.02;;;13.02;;
37593;SDS011;23441;50.856;6.076;2024-03-22T07:28:55;24.75;;;13.63;;
37593;SDS011;23441;50.856;6.076;2024-03-22T07:31:41;23.83;;;14.65;;
37593;SDS011;23441;50.856;6.076;2024-03-22T07:34:27;27.13;;;14.98;;
37593;SDS011;23441;50.856;6.076;2024-03-22T07:37:13;29.23;;;14.85;;
37593;SDS011;23441;50.856;6.076;2024-03-22T07:39:59;27.55;;;16.25;;
37593;SDS011;23441;50.856;6.076;2024-03-22T07:42:45;28.13;;;15.32;;
37593;SDS011;23441;50.856;6.076;2024-03-22T07:45:32;28.52;;;16.48;;
37593;SDS011;23441;50.856;6.076;2024-03-22T07:48:19;28.77;;;16.10;;
37593;SDS011;23441;50.856;6.076;2024-03-22T07:51:05;31.67;;;16.50;;
37593;SDS011;23441;50.856;6.076;2024-03-22T07:53:51;27.98;;;15.15;;
37593;SDS011;23441;50.856;6.076;2024-03-22T07:56:37;29.60;;;16.65;;
37593;SDS011;23441;50.856;6.076;2024-03-22T07:59:23;26.02;;;14.85;;
37593;SDS011;23441;50.856;6.076;2024-03-22T08:02:09;27.15;;;15.93;;
37593;SDS011;23441;50.856;6.076;2024-03-22T08:04:55;23.98;;;14.88;;
37593;SDS011;23441;50.856;6.076;2024-03-22T08:07:41;26.63;;;16.50;;
37593;SDS011;23441;50.856;6.076;2024-03-22T08:10:28;25.50;;;14.40;;
37593;SDS011;23441;50.856;6.076;2024-03-22T08:13:14;30.23;;;15.00;;
37593;SDS011;23441;50.856;6.076;2024-03-22T08:16:00;28.98;;;15.98;;
37593;SDS011;23441;50.856;6.076;2024-03-22T08:18:46;25.08;;;14.82;;
37593;SDS011;23441;50.856;6.076;2024-03-22T08:21:32;28.35;;;15.55;;
37593;SDS011;23441;50.856;6.076;2024-03-22T08:24:18;25.48;;;14.60;;
37593;SDS011;23441;50.856;6.076;2024-03-22T08:27:04;23.90;;;14.52;;
37593;SDS011;23441;50.856;6.076;2024-03-22T08:29:50;24.73;;;14.02;;
37593;SDS011;23441;50.856;6.076;2024-03-22T08:32:36;22.45;;;13.57;;
37593;SDS011;23441;50.856;6.076;2024-03-22T08:35:22;26.83;;;14.68;;
37593;SDS011;23441;50.856;6.076;2024-03-22T08:38:08;26.55;;;15.00;;
37593;SDS011;23441;50.856;6.076;2024-03-22T08:40:55;23.52;;;13.88;;
37593;SDS011;23441;50.856;6.076;2024-03-22T08:43:41;24.95;;;13.50;;
37593;SDS011;23441;50.856;6.076;2024-03-22T08:46:27;23.15;;;13.57;;
37593;SDS011;23441;50.856;6.076;2024-03-22T08:49:13;22.95;;;13.85;;
37593;SDS011;23441;50.856;6.076;2024-03-22T08:51:59;28.02;;;14.25;;
37593;SDS011;23441;50.856;6.076;2024-03-22T08:54:46;24.40;;;14.68;;
37593;SDS011;23441;50.856;6.076;2024-03-22T08:57:31;26.15;;;13.73;;
37593;SDS011;23441;50.856;6.076;2024-03-22T09:00:18;22.05;;;13.77;;
37593;SDS011;23441;50.856;6.076;2024-03-22T09:03:04;19.55;;;13.13;;
37593;SDS011;23441;50.856;6.076;2024-03-22T09:05:53;22.30;;;13.05;;
37593;SDS011;23441;50.856;6.076;2024-03-22T09:08:39;25.92;;;13.82;;
37593;SDS011;23441;50.856;6.076;2024-03-22T09:11:25;22.85;;;13.13;;
37593;SDS011;23441;50.856;6.076;2024-03-22T09:14:11;23.42;;;14.18;;
37593;SDS011;23441;50.856;6.076;2024-03-22T09:16:57;23.80;;;14.38;;
37593;SDS011;23441;50.856;6.076;2024-03-22T09:19:43;22.15;;;13.90;;
37593;SDS011;23441;50.856;6.076;2024-03-22T09:22:29;24.88;;;13.95;;
37593;SDS011;23441;50.856;6.076;2024-03-22T09:25:17;21.85;;;13.70;;
37593;SDS011;23441;50.856;6.076;2024-03-22T09:28:04;27.90;;;14.45;;
37593;SDS011;23441;50.856;6.076;2024-03-22T09:30:50;21.30;;;14.10;;
37593;SDS011;23441;50.856;6.076;2024-03-22T09:33:36;29.50;;;14.98;;
37593;SDS011;23441;50.856;6.076;2024-03-22T09:36:21;24.75;;;14.60;;
37593;SDS011;23441;50.856;6.076;2024-03-22T09:39:07;26.75;;;15.27;;
37593;SDS011;23441;50.856;6.076;2024-03-22T09:41:53;27.83;;;14.75;;
37593;SDS011;23441;50.856;6.076;2024-03-22T09:44:48;27.30;;;14.48;;
37593;SDS011;23441;50.856;6.076;2024-03-22T09:47:36;24.83;;;14.23;;
37593;SDS011;23441;50.856;6.076;2024-03-22T09:50:22;29.45;;;15.05;;
37593;SDS011;23441;50.856;6.076;2024-03-22T09:53:09;29.60;;;16.50;;
37593;SDS011;23441;50.856;6.076;2024-03-22T09:55:55;30.10;;;15.98;;
37593;SDS011;23441;50.856;6.076;2024-03-22T09:58:44;28.95;;;16.45;;
37593;SDS011;23441;50.856;6.076;2024-03-22T10:01:30;27.77;;;15.80;;
37593;SDS011;23441;50.856;6.076;2024-03-22T10:04:17;27.80;;;17.02;;
37593;SDS011;23441;50.856;6.076;2024-03-22T10:07:04;28.85;;;17.65;;
37593;SDS011;23441;50.856;6.076;2024-03-22T10:09:57;28.38;;;17.35;;
37593;SDS011;23441;50.856;6.076;2024-03-22T10:12:46;30.42;;;17.58;;
37593;SDS011;23441;50.856;6.076;2024-03-22T10:15:32;32.78;;;18.23;;
37593;SDS011;23441;50.856;6.076;2024-03-22T10:18:18;35.03;;;18.80;;
37593;SDS011;23441;50.856;6.076;2024-03-22T10:21:04;32.45;;;19.13;;
37593;SDS011;23441;50.856;6.076;2024-03-22T10:23:50;30.98;;;20.13;;
37593;SDS011;23441;50.856;6.076;2024-03-22T10:26:39;31.42;;;18.88;;
37593;SDS011;23441;50.856;6.076;2024-03-22T10:29:25;36.92;;;20.67;;
37593;SDS011;23441;50.856;6.076;2024-03-22T10:32:11;37.80;;;21.35;;
37593;SDS011;23441;50.856;6.076;2024-03-22T10:34:58;38.50;;;21.65;;
37593;SDS011;23441;50.856;6.076;2024-03-22T10:37:44;36.30;;;20.88;;
37593;SDS011;23441;50.856;6.076;2024-03-22T10:40:30;33.88;;;21.08;;
37593;SDS011;23441;50.856;6.076;2024-03-22T10:43:17;31.70;;;20.08;;
37593;SDS011;23441;50.856;6.076;2024-03-22T10:46:03;33.70;;;20.98;;
37593;SDS011;23441;50.856;6.076;2024-03-22T10:48:49;35.92;;;21.63;;
37593;SDS011;23441;50.856;6.076;2024-03-22T10:51:35;36.50;;;20.80;;
37593;SDS011;23441;50.856;6.076;2024-03-22T10:54:23;31.10;;;20.77;;
37593;SDS011;23441;50.856;6.076;2024-03-22T10:57:13;29.77;;;19.65;;
37593;SDS011;23441;50.856;6.076;2024-03-22T11:00:03;32.50;;;19.38;;
37593;SDS011;23441;50.856;6.076;2024-03-22T11:03:03;31.15;;;18.52;;
37593;SDS011;23441;50.856;6.076;2024-03-22T11:05:50;33.17;;;18.73;;
37593;SDS011;23441;50.856;6.076;2024-03-22T11:08:40;30.90;;;19.80;;
37593;SDS011;23441;50.856;6.076;2024-03-22T11:11:28;32.80;;;20.35;;
37593;SDS011;23441;50.856;6.076;2024-03-22T11:14:14;33.22;;;19.58;;
37593;SDS011;23441;50.856;6.076;2024-03-22T11:17:01;32.53;;;19.25;;
37593;SDS011;23441;50.856;6.076;2024-03-22T11:19:47;30.73;;;19.08;;
37593;SDS011;23441;50.856;6.076;2024-03-22T11:22:33;28.88;;;17.40;;
37593;SDS011;23441;50.856;6.076;2024-03-22T11:25:20;29.98;;;19.00;;
37593;SDS011;23441;50.856;6.076;2024-03-22T11:28:06;31.88;;;18.42;;
37593;SDS011;23441;50.856;6.076;2024-03-22T11:30:52;33.08;;;20.38;;
37593;SDS011;23441;50.856;6.076;2024-03-22T11:33:38;32.97;;;21.23;;
37593;SDS011;23441;50.856;6.076;2024-03-22T11:36:25;33.53;;;20.00;;
37593;SDS011;23441;50.856;6.076;2024-03-22T11:39:10;32.63;;;20.75;;
37593;SDS011;23441;50.856;6.076;2024-03-22T11:41:57;34.97;;;21.45;;
37593;SDS011;23441;50.856;6.076;2024-03-22T11:44:43;33.05;;;20.95;;
37593;SDS011;23441;50.856;6.076;2024-03-22T11:47:29;31.85;;;19.65;;
37593;SDS011;23441;50.856;6.076;2024-03-22T11:50:15;29.45;;;19.30;;
37593;SDS011;23441;50.856;6.076;2024-03-22T11:53:02;34.45;;;20.50;;
37593;SDS011;23441;50.856;6.076;2024-03-22T11:55:49;31.17;;;18.83;;
37593;SDS011;23441;50.856;6.076;2024-03-22T11:58:35;30.10;;;17.65;;
37593;SDS011;23441;50.856;6.076;2024-03-22T12:01:21;30.42;;;17.15;;
37593;SDS011;23441;50.856;6.076;2024-03-22T12:04:07;26.75;;;15.50;;
37593;SDS011;23441;50.856;6.076;2024-03-22T12:07:00;26.95;;;16.48;;
37593;SDS011;23441;50.856;6.076;2024-03-22T12:09:46;24.42;;;15.95;;
37593;SDS011;23441;50.856;6.076;2024-03-22T12:12:32;26.17;;;16.27;;
37593;SDS011;23441;50.856;6.076;2024-03-22T12:15:18;27.95;;;15.63;;
37593;SDS011;23441;50.856;6.076;2024-03-22T12:18:04;25.83;;;16.15;;
37593;SDS011;23441;50.856;6.076;2024-03-22T12:20:50;23.33;;;14.55;;
37593;SDS011;23441;50.856;6.076;2024-03-22T12:23:36;21.40;;;13.65;;
37593;SDS011;23441;50.856;6.076;2024-03-22T12:26:22;23.42;;;13.07;;
37593;SDS011;23441;50.856;6.076;2024-03-22T12:29:08;21.98;;;13.45;;
37593;SDS011;23441;50.856;6.076;2024-03-22T12:31:55;20.48;;;13.07;;
37593;SDS011;23441;50.856;6.076;2024-03-22T12:34:41;23.65;;;12.63;;
37593;SDS011;23441;50.856;6.076;2024-03-22T12:37:27;22.20;;;11.88;;
37593;SDS011;23441;50.856;6.076;2024-03-22T12:40:13;19.85;;;12.75;;
37593;SDS011;23441;50.856;6.076;2024-03-22T12:42:59;20.67;;;12.10;;
37593;SDS011;23441;50.856;6.076;2024-03-22T12:45:45;22.80;;;11.98;;
37593;SDS011;23441;50.856;6.076;2024-03-22T12:48:31;19.65;;;12.80;;
37593;SDS011;23441;50.856;6.076;2024-03-22T12:51:18;20.38;;;12.63;;
37593;SDS011;23441;50.856;6.076;2024-03-22T12:54:05;18.42;;;11.77;;
37593;SDS011;23441;50.856;6.076;2024-03-22T12:56:51;22.73;;;11.80;;
37593;SDS011;23441;50.856;6.076;2024-03-22T12:59:36;17.75;;;11.32;;
37593;SDS011;23441;50.856;6.076;2024-03-22T13:02:22;18.40;;;12.23;;
37593;SDS011;23441;50.856;6.076;2024-03-22T13:05:08;21.90;;;11.60;;
37593;SDS011;23441;50.856;6.076;2024-03-22T13:07:55;17.58;;;10.60;;
37593;SDS011;23441;50.856;6.076;2024-03-22T13:10:41;19.33;;;11.75;;
37593;SDS011;23441;50.856;6.076;2024-03-22T13:13:29;16.30;;;11.55;;
37593;SDS011;23441;50.856;6.076;2024-03-22T13:16:15;21.55;;;11.85;;
37593;SDS011;23441;50.856;6.076;2024-03-22T13:19:01;19.27;;;12.32;;
37593;SDS011;23441;50.856;6.076;2024-03-22T13:21:47;21.58;;;11.60;;
37593;SDS011;23441;50.856;6.076;2024-03-22T13:24:34;16.70;;;10.98;;
37593;SDS011;23441;50.856;6.076;2024-03-22T13:27:20;22.35;;;10.95;;
37593;SDS011;23441;50.856;6.076;2024-03-22T13:30:08;17.30;;;10.45;;
37593;SDS011;23441;50.856;6.076;2024-03-22T13:32:55;15.30;;;8.75;;
37593;SDS011;23441;50.856;6.076;2024-03-22T13:35:43;12.60;;;8.27;;
37593;SDS011;23441;50.856;6.076;2024-03-22T13:38:30;13.93;;;8.55;;
37593;SDS011;23441;50.856;6.076;2024-03-22T13:41:16;17.10;;;9.55;;
37593;SDS011;23441;50.856;6.076;2024-03-22T13:44:02;15.40;;;9.73;;
37593;SDS011;23441;50.856;6.076;2024-03-22T13:46:49;14.02;;;9.63;;
37593;SDS011;23441;50.856;6.076;2024-03-22T13:49:36;13.18;;;8.70;;
37593;SDS011;23441;50.856;6.076;2024-03-22T13:52:23;21.70;;;10.20;;
37593;SDS011;23441;50.856;6.076;2024-03-22T13:55:11;15.75;;;9.32;;
37593;SDS011;23441;50.856;6.076;2024-03-22T13:57:57;18.55;;;9.82;;
37593;SDS011;23441;50.856;6.076;2024-03-22T14:00:43;14.85;;;9.32;;
37593;SDS011;23441;50.856;6.076;2024-03-22T14:03:28;15.80;;;10.00;;
37593;SDS011;23441;50.856;6.076;2024-03-22T14:06:14;14.43;;;9.30;;
37593;SDS011;23441;50.856;6.076;2024-03-22T14:09:00;18.13;;;10.77;;
37593;SDS011;23441;50.856;6.076;2024-03-22T14:11:46;15.73;;;10.07;;
37593;SDS011;23441;50.856;6.076;2024-03-22T14:14:34;17.95;;;9.90;;
37593;SDS011;23441;50.856;6.076;2024-03-22T14:17:20;19.25;;;10.55;;
37593;SDS011;23441;50.856;6.076;2024-03-22T14:20:06;18.52;;;10.52;;
37593;SDS011;23441;50.856;6.076;2024-03-22T14:22:57;16.38;;;10.38;;
37593;SDS011;23441;50.856;6.076;2024-03-22T14:25:43;15.23;;;10.18;;
37593;SDS011;23441;50.856;6.076;2024-03-22T14:28:32;17.77;;;10.90;;
37593;SDS011;23441;50.856;6.076;2024-03-22T14:31:18;18.30;;;11.15;;
37593;SDS011;23441;50.856;6.076;2024-03-22T14:34:08;17.00;;;10.45;;
37593;SDS011;23441;50.856;6.076;2024-03-22T14:36:54;18.95;;;12.73;;
37593;SDS011;23441;50.856;6.076;2024-03-22T14:39:40;18.55;;;11.88;;
37593;SDS011;23441;50.856;6.076;2024-03-22T14:42:27;19.92;;;11.98;;
37593;SDS011;23441;50.856;6.076;2024-03-22T14:45:13;20.52;;;12.18;;
37593;SDS011;23441;50.856;6.076;2024-03-22T14:48:05;20.33;;;11.38;;
37593;SDS011;23441;50.856;6.076;2024-03-22T14:50:52;20.27;;;10.98;;
37593;SDS011;23441;50.856;6.076;2024-03-22T14:53:39;21.52;;;12.43;;
37593;SDS011;23441;50.856;6.076;2024-03-22T14:56:25;20.77;;;12.75;;
37593;SDS011;23441;50.856;6.076;2024-03-22T14:59:11;18.70;;;13.05;;
37593;SDS011;23441;50.856;6.076;2024-03-22T15:01:57;26.08;;;14.25;;
37593;SDS011;23441;50.856;6.076;2024-03-22T15:04:43;21.88;;;13.60;;
37593;SDS011;23441;50.856;6.076;2024-03-22T15:07:29;21.70;;;13.95;;
37593;SDS011;23441;50.856;6.076;2024-03-22T15:10:16;27.27;;;14.32;;
37593;SDS011;23441;50.856;6.076;2024-03-22T15:13:01;21.15;;;13.75;;
37593;SDS011;23441;50.856;6.076;2024-03-22T15:15:54;27.75;;;15.20;;
37593;SDS011;23441;50.856;6.076;2024-03-22T15:18:41;26.63;;;15.48;;
37593;SDS011;23441;50.856;6.076;2024-03-22T15:21:27;25.88;;;15.13;;
37593;SDS011;23441;50.856;6.076;2024-03-22T15:24:13;23.85;;;14.85;;
37593;SDS011;23441;50.856;6.076;2024-03-22T15:26:59;26.50;;;15.52;;
37593;SDS011;23441;50.856;6.076;2024-03-22T15:29:45;36.08;;;16.65;;
37593;SDS011;23441;50.856;6.076;2024-03-22T15:32:31;27.30;;;17.00;;
37593;SDS011;23441;50.856;6.076;2024-03-22T15:35:17;28.70;;;15.93;;
37593;SDS011;23441;50.856;6.076;2024-03-22T15:38:03;28.63;;;17.77;;
37593;SDS011;23441;50.856;6.076;2024-03-22T15:40:50;24.50;;;16.05;;
37593;SDS011;23441;50.856;6.076;2024-03-22T15:43:37;27.40;;;17.35;;
37593;SDS011;23441;50.856;6.076;2024-03-22T15:46:22;27.75;;;16.75;;
37593;SDS011;23441;50.856;6.076;2024-03-22T15:49:09;29.77;;;16.92;;
37593;SDS011;23441;50.856;6.076;2024-03-22T15:51:55;30.75;;;17.25;;
37593;SDS011;23441;50.856;6.076;2024-03-22T15:54:41;29.65;;;17.10;;
37593;SDS011;23441;50.856;6.076;2024-03-22T15:57:27;31.88;;;18.05;;
37593;SDS011;23441;50.856;6.076;2024-03-22T16:00:13;28.23;;;16.38;;
37593;SDS011;23441;50.856;6.076;2024-03-22T16:03:00;34.92;;;17.88;;
37593;SDS011;23441;50.856;6.076;2024-03-22T16:05:49;30.05;;;17.27;;
37593;SDS011;23441;50.856;6.076;2024-03-22T16:08:36;25.55;;;15.55;;
37593;SDS011;23441;50.856;6.076;2024-03-22T16:11:22;31.90;;;17.42;;